createdAt,value
2019-04-30T05:02:45.623Z,99.90
2019-04-30T06:33:40.463Z,97.00
2019-04-30T06:36:25.541Z,82.20
2019-04-30T06:38:58.941Z,73.60
2019-04-30T06:41:31.755Z,86.50
2019-04-30T08:45:10.156Z,48.70
2019-04-30T08:47:39.995Z,44.80
2019-04-30T08:50:21.770Z,45.70
2019-04-30T08:52:59.815Z,48.60
2019-04-30T08:58:09.399Z,55.00
2019-04-30T09:00:32.189Z,59.70
2019-04-30T09:03:02.302Z,53.80
2019-04-30T09:05:50.837Z,50.40
2019-04-30T09:10:49.970Z,50.30
2019-04-30T09:15:50.818Z,58.90
2019-04-30T09:18:21.081Z,58.30
2019-04-30T09:20:53.091Z,58.40
2019-04-30T09:23:22.967Z,56.50
2019-04-30T09:25:52.715Z,59.10
2019-04-30T09:28:23.738Z,56.50
2019-04-30T09:30:55.139Z,57.40
2019-04-30T11:29:53.285Z,44.50
2019-04-30T11:34:55.077Z,49.70
2019-04-30T11:37:25.474Z,43.70
2019-04-30T11:40:34.312Z,42.70
2019-04-30T11:43:01.132Z,42.40
2019-04-30T11:46:18.692Z,42.90
2019-04-30T11:48:49.208Z,46.60
2019-04-30T11:51:21.591Z,48.10
2019-04-30T11:53:59.178Z,45.90
2019-04-30T11:56:33.026Z,45.30
2019-04-30T11:59:19.558Z,47.10
2019-04-30T12:01:52.010Z,46.80
2019-04-30T12:04:36.328Z,51.80
2019-04-30T12:07:16.144Z,47.10
2019-04-30T12:12:43.568Z,42.40
2019-04-30T12:15:16.357Z,45.30
2019-04-30T12:17:47.416Z,45.00
2019-04-30T12:40:48.338Z,42.20
2019-04-30T12:43:18.238Z,44.10
2019-04-30T12:48:41.234Z,41.80
2019-04-30T12:51:45.603Z,43.20
2019-04-30T12:54:14.462Z,41.90
2019-04-30T12:57:02.064Z,39.80
2019-04-30T12:59:31.858Z,41.20
2019-04-30T13:02:09.148Z,40.20
2019-04-30T13:04:40.272Z,39.70
2019-04-30T13:07:12.130Z,38.30
2019-04-30T13:09:45.247Z,40.80
2019-04-30T13:12:19.003Z,39.50
2019-04-30T13:14:52.465Z,40.20
2019-04-30T13:17:23.242Z,38.40
2019-04-30T13:19:56.281Z,36.20
2019-04-30T13:24:59.597Z,37.90
2019-04-30T13:27:33.661Z,39.90
2019-04-30T13:30:15.113Z,37.50
2019-04-30T13:41:23.317Z,34.00
2019-04-30T13:44:04.559Z,34.30
2019-04-30T13:46:34.505Z,33.50
2019-04-30T13:49:04.321Z,34.50
2019-04-30T13:51:34.247Z,36.70
2019-04-30T13:54:06.303Z,34.70
2019-04-30T13:56:36.656Z,32.80
2019-04-30T13:59:10.869Z,33.80
2019-04-30T14:01:44.748Z,35.80
2019-04-30T14:04:27.304Z,35.50
2019-04-30T14:07:16.050Z,33.00
2019-04-30T14:09:48.680Z,32.40
2019-04-30T14:15:48.251Z,30.80
2019-04-30T14:18:28.583Z,31.30
2019-04-30T14:21:19.293Z,31.00
2019-04-30T14:23:50.675Z,31.60
2019-04-30T14:26:20.730Z,30.00
2019-04-30T14:34:39.886Z,32.00
2019-04-30T14:37:11.034Z,31.20
2019-04-30T14:39:42.867Z,32.20
2019-04-30T14:42:13.413Z,29.30
2019-04-30T14:44:44.758Z,28.60
2019-04-30T14:50:10.968Z,29.00
2019-04-30T14:52:49.459Z,29.40
2019-04-30T14:56:08.505Z,29.40
2019-04-30T14:58:49.557Z,28.40
2019-04-30T15:01:29.288Z,29.40
2019-04-30T15:04:01.732Z,29.10
2019-04-30T15:06:31.612Z,29.90
2019-04-30T15:09:02.318Z,29.20
2019-04-30T15:11:36.555Z,29.60
2019-04-30T15:14:07.120Z,29.40
2019-04-30T15:16:40.035Z,30.00
2019-04-30T15:19:11.244Z,29.10
2019-04-30T15:21:41.091Z,29.50
2019-04-30T15:24:26.624Z,29.70
2019-04-30T15:30:00.740Z,29.20
2019-04-30T15:32:39.628Z,29.50
2019-04-30T15:35:25.797Z,29.60
2019-04-30T15:38:00.154Z,30.00
2019-04-30T15:40:36.094Z,30.30
2019-04-30T15:43:10.183Z,29.60
2019-04-30T15:45:45.245Z,29.70
2019-04-30T15:48:19.731Z,30.80
2019-04-30T15:51:09.246Z,29.90
2019-04-30T15:53:45.439Z,31.90
2019-04-30T15:56:21.073Z,30.60
2019-04-30T16:01:53.402Z,29.50
2019-04-30T16:04:39.660Z,30.40
2019-04-30T16:07:11.124Z,28.80
2019-04-30T16:09:52.025Z,29.60
2019-04-30T16:12:32.104Z,29.30
2019-04-30T16:15:05.179Z,30.70
2019-04-30T16:17:49.270Z,29.20
2019-04-30T16:20:40.338Z,29.30
2019-04-30T16:23:13.130Z,28.80
2019-04-30T16:26:02.201Z,29.60
2019-04-30T16:28:39.062Z,29.10
2019-04-30T16:31:39.156Z,29.80
2019-04-30T16:34:16.945Z,30.00
2019-04-30T16:36:49.696Z,30.60
2019-04-30T16:39:22.020Z,30.00
2019-04-30T16:41:53.087Z,30.70
2019-04-30T16:44:24.605Z,30.20
2019-04-30T16:47:13.639Z,31.20
2019-04-30T16:49:40.692Z,29.90
2019-04-30T16:52:18.984Z,30.70
2019-04-30T16:54:54.885Z,30.00
2019-04-30T16:57:32.837Z,30.50
2019-04-30T17:00:30.845Z,30.60
2019-04-30T17:03:09.109Z,30.90
2019-04-30T17:05:44.603Z,30.80
2019-04-30T17:08:39.166Z,31.10
2019-04-30T17:11:28.282Z,32.10
2019-04-30T17:14:02.366Z,31.40
2019-04-30T17:16:32.415Z,32.00
2019-04-30T17:19:02.605Z,31.80
2019-04-30T17:21:33.677Z,32.00
2019-04-30T17:24:08.666Z,32.60
2019-04-30T17:26:39.193Z,32.80
2019-04-30T17:29:12.200Z,34.40
2019-04-30T17:31:48.765Z,33.00
2019-04-30T17:34:18.882Z,33.30
2019-04-30T17:36:50.758Z,34.00
2019-04-30T17:39:24.778Z,33.90
2019-04-30T17:42:07.905Z,34.90
2019-04-30T17:44:53.796Z,34.40
2019-04-30T17:47:22.313Z,34.20
2019-04-30T17:49:54.355Z,35.40
2019-04-30T17:52:30.797Z,35.10
2019-04-30T17:55:04.961Z,34.90
2019-04-30T17:57:36.313Z,34.90
2019-04-30T18:00:16.872Z,35.60
2019-04-30T18:02:41.241Z,35.30
2019-04-30T18:08:05.283Z,36.10
2019-04-30T18:10:40.117Z,35.90
2019-04-30T18:13:10.260Z,35.80
2019-04-30T18:15:40.379Z,36.40
2019-04-30T18:18:18.488Z,36.20
2019-04-30T18:20:59.562Z,35.80
2019-04-30T18:23:45.629Z,36.60
2019-04-30T18:26:18.115Z,36.70
2019-04-30T18:28:51.032Z,36.50
2019-04-30T18:31:22.470Z,37.10
2019-04-30T18:33:54.355Z,35.80
2019-04-30T18:36:25.107Z,36.00
2019-04-30T18:38:59.024Z,35.90
2019-04-30T18:41:31.982Z,35.90
2019-04-30T18:44:02.403Z,35.00
2019-04-30T18:46:32.777Z,34.90
2019-04-30T18:49:15.688Z,34.50
2019-04-30T18:51:49.253Z,34.70
2019-04-30T18:54:20.943Z,35.70
2019-04-30T18:56:51.166Z,34.70
2019-04-30T18:59:21.345Z,35.00
2019-04-30T19:01:52.104Z,36.30
2019-04-30T19:04:22.157Z,34.80
2019-04-30T19:06:53.650Z,35.70
2019-04-30T19:09:50.593Z,36.20
2019-04-30T19:12:56.129Z,35.50
2019-04-30T19:16:14.708Z,35.70
2019-04-30T19:18:51.547Z,36.00
2019-04-30T19:21:27.761Z,35.60
2019-04-30T19:23:58.685Z,35.20
2019-04-30T19:26:30.431Z,35.60
2019-04-30T19:29:00.495Z,35.40
2019-04-30T19:31:34.256Z,35.80
2019-04-30T19:34:06.079Z,35.40
2019-04-30T19:36:40.528Z,35.50
2019-04-30T19:39:13.687Z,36.60
2019-04-30T19:41:43.814Z,37.70
2019-04-30T19:44:20.854Z,38.90
2019-04-30T19:46:53.237Z,37.70
2019-04-30T19:49:43.558Z,38.40
2019-04-30T19:52:13.515Z,37.80
2019-04-30T19:54:43.658Z,38.20
2019-04-30T19:57:13.710Z,37.00
2019-04-30T19:59:44.006Z,36.80
2019-04-30T20:02:14.803Z,36.70
2019-04-30T20:04:44.761Z,37.30
2019-04-30T20:07:15.146Z,36.30
2019-04-30T20:09:58.499Z,36.10
2019-04-30T20:12:18.813Z,36.30
2019-04-30T20:14:49.601Z,35.90
2019-04-30T20:17:21.477Z,35.90
2019-04-30T20:19:52.337Z,35.50
2019-04-30T20:22:22.437Z,36.30
2019-04-30T20:24:52.721Z,35.80
2019-04-30T20:27:22.621Z,36.70
2019-04-30T20:29:52.506Z,36.20
2019-04-30T20:32:33.834Z,37.20
2019-04-30T20:34:59.775Z,36.40
2019-04-30T20:37:30.284Z,35.90
2019-04-30T20:40:12.254Z,36.10
2019-04-30T20:42:42.379Z,37.10
2019-04-30T20:45:12.626Z,37.10
2019-04-30T20:47:42.550Z,37.00
2019-04-30T20:50:12.799Z,37.10
2019-04-30T20:52:43.595Z,37.00
2019-04-30T20:55:14.104Z,37.20
2019-04-30T20:57:44.667Z,38.30
2019-04-30T21:00:15.930Z,37.60
2019-04-30T21:02:48.620Z,38.60
2019-04-30T21:05:18.549Z,39.20
2019-04-30T21:07:48.352Z,39.20
2019-04-30T21:10:19.954Z,40.10
2019-04-30T21:12:49.893Z,40.40
2019-04-30T21:15:20.328Z,39.90
2019-04-30T21:17:50.495Z,40.40
2019-04-30T21:20:20.626Z,41.30
2019-04-30T21:22:50.557Z,40.90
2019-04-30T21:25:20.636Z,41.10
2019-04-30T21:27:50.834Z,41.70
2019-04-30T21:30:21.210Z,41.60
2019-04-30T21:33:13.003Z,41.40
2019-04-30T21:35:53.246Z,42.00
2019-04-30T21:38:23.321Z,41.90
2019-04-30T21:40:53.409Z,42.00
2019-04-30T21:43:24.452Z,41.90
2019-04-30T21:45:54.444Z,42.50
2019-04-30T21:48:24.482Z,43.70
2019-04-30T21:50:54.414Z,43.00
2019-04-30T21:53:24.319Z,43.10
2019-04-30T21:55:54.349Z,43.90
2019-04-30T21:58:24.883Z,44.50
2019-04-30T22:01:16.388Z,44.60
2019-04-30T22:03:47.044Z,44.50
2019-04-30T22:06:17.253Z,44.90
2019-04-30T22:08:48.606Z,45.80
2019-04-30T22:11:19.770Z,45.90
2019-04-30T22:13:53.086Z,45.60
2019-04-30T22:16:23.302Z,47.50
2019-04-30T22:18:55.725Z,47.40
2019-04-30T22:21:25.885Z,47.80
2019-04-30T22:23:56.431Z,49.50
2019-04-30T22:26:26.433Z,48.50
2019-04-30T22:28:56.243Z,48.70
2019-04-30T22:31:26.032Z,49.40
2019-04-30T22:33:55.906Z,49.40
2019-04-30T22:36:39.950Z,49.50
2019-04-30T22:39:29.950Z,49.40
2019-04-30T22:42:34.447Z,49.00
2019-04-30T22:45:08.176Z,48.80
2019-04-30T22:47:37.985Z,49.30
2019-04-30T22:50:11.067Z,50.40
2019-04-30T22:52:40.901Z,50.70
2019-04-30T22:55:10.909Z,49.20
2019-04-30T22:57:40.739Z,48.40
2019-04-30T23:00:15.054Z,47.80
2019-04-30T23:03:03.715Z,49.10
2019-04-30T23:05:33.494Z,49.10
2019-04-30T23:08:03.894Z,48.90
2019-04-30T23:10:33.719Z,49.30
2019-04-30T23:13:03.574Z,49.70
2019-04-30T23:15:33.453Z,49.60
2019-04-30T23:18:03.455Z,50.10
2019-04-30T23:20:33.260Z,51.40
2019-04-30T23:23:03.298Z,51.00
2019-04-30T23:25:33.197Z,51.10
2019-04-30T23:28:03.056Z,52.50
2019-04-30T23:30:32.923Z,51.20
2019-04-30T23:33:02.837Z,51.70
2019-04-30T23:35:32.689Z,51.40
2019-04-30T23:38:02.535Z,51.60
2019-04-30T23:40:47.400Z,52.00
2019-04-30T23:43:17.379Z,52.40
2019-04-30T23:45:47.190Z,52.70
2019-04-30T23:48:17.131Z,52.40
2019-04-30T23:50:47.078Z,53.60
2019-04-30T23:53:17.007Z,54.10
2019-04-30T23:55:46.846Z,54.40
2019-04-30T23:58:16.621Z,55.70
